sensor_id;sensor_type;location;lat;lon;timestamp;pressure;altitude;pressure_sealevel;temperature;humidity
11856;BME280;5987;53.140;8.904;2022-09-20T00:02:48;101871.94;;;7.79;100.00
11856;BME280;5987;53.140;8.904;2022-09-20T00:05:52;101861.56;;;7.72;100.00
11856;BME280;5987;53.140;8.904;2022-09-20T00:08:57;101872.03;;;7.66;100.00
11856;BME280;5987;53.140;8.904;2022-09-20T00:12:02;101875.56;;;7.65;100.00
11856;BME280;5987;53.140;8.904;2022-09-20T00:15:08;101881.66;;;7.64;100.00
11856;BME280;5987;53.140;8.904;2022-09-20T00:18:12;101880.81;;;7.61;100.00
11856;BME280;5987;53.140;8.904;2022-09-20T00:21:18;101879.09;;;7.58;100.00
11856;BME280;5987;53.140;8.904;2022-09-20T00:24:23;101876.50;;;7.58;100.00
11856;BME280;5987;53.140;8.904;2022-09-20T00:27:27;101880.88;;;7.53;100.00
11856;BME280;5987;53.140;8.904;2022-09-20T00:30:33;101884.41;;;7.47;100.00
11856;BME280;5987;53.140;8.904;2022-09-20T00:33:36;101884.41;;;7.46;100.00
11856;BME280;5987;53.140;8.904;2022-09-20T00:36:57;101887.84;;;7.51;100.00
11856;BME280;5987;53.140;8.904;2022-09-20T00:40:05;101884.44;;;7.43;100.00
11856;BME280;5987;53.140;8.904;2022-09-20T00:43:14;101892.28;;;7.43;100.00
11856;BME280;5987;53.140;8.904;2022-09-20T00:46:25;101887.94;;;7.40;100.00
11856;BME280;5987;53.140;8.904;2022-09-20T00:49:31;101897.50;;;7.38;100.00
11856;BME280;5987;53.140;8.904;2022-09-20T00:52:36;101899.28;;;7.34;100.00
11856;BME280;5987;53.140;8.904;2022-09-20T00:55:46;101905.38;;;7.36;100.00
11856;BME280;5987;53.140;8.904;2022-09-20T00:59:10;101906.22;;;7.40;100.00
11856;BME280;5987;53.140;8.904;2022-09-20T01:02:22;101905.34;;;7.38;100.00
11856;BME280;5987;53.140;8.904;2022-09-20T01:05:28;101907.09;;;7.37;100.00
11856;BME280;5987;53.140;8.904;2022-09-20T01:08:34;101908.81;;;7.42;100.00
11856;BME280;5987;53.140;8.904;2022-09-20T01:11:40;101902.72;;;7.43;100.00
11856;BME280;5987;53.140;8.904;2022-09-20T01:14:46;101907.94;;;7.46;100.00
11856;BME280;5987;53.140;8.904;2022-09-20T01:17:54;101921.03;;;7.43;100.00
11856;BME280;5987;53.140;8.904;2022-09-20T01:21:01;101919.22;;;7.49;100.00
11856;BME280;5987;53.140;8.904;2022-09-20T01:24:15;101921.88;;;7.43;100.00
11856;BME280;5987;53.140;8.904;2022-09-20T01:27:39;101920.13;;;7.44;100.00
11856;BME280;5987;53.140;8.904;2022-09-20T01:30:47;101927.94;;;7.48;100.00
11856;BME280;5987;53.140;8.904;2022-09-20T01:33:59;101940.97;;;7.53;100.00
11856;BME280;5987;53.140;8.904;2022-09-20T01:37:12;101943.59;;;7.53;100.00
11856;BME280;5987;53.140;8.904;2022-09-20T01:40:25;101938.31;;;7.58;100.00
11856;BME280;5987;53.140;8.904;2022-09-20T01:43:41;101940.03;;;7.65;100.00
11856;BME280;5987;53.140;8.904;2022-09-20T01:46:55;101948.72;;;7.68;100.00
11856;BME280;5987;53.140;8.904;2022-09-20T01:50:23;101946.94;;;7.77;100.00
11856;BME280;5987;53.140;8.904;2022-09-20T01:54:07;101943.38;;;7.84;100.00
11856;BME280;5987;53.140;8.904;2022-09-20T01:57:49;101952.03;;;7.92;100.00
11856;BME280;5987;53.140;8.904;2022-09-20T02:01:59;101951.97;;;8.00;100.00
11856;BME280;5987;53.140;8.904;2022-09-20T02:05:53;101953.63;;;8.12;100.00
11856;BME280;5987;53.140;8.904;2022-09-20T02:09:40;101945.75;;;8.15;100.00
11856;BME280;5987;53.140;8.904;2022-09-20T02:12:54;101950.91;;;8.21;100.00
11856;BME280;5987;53.140;8.904;2022-09-20T02:16:31;101952.66;;;8.23;100.00
11856;BME280;5987;53.140;8.904;2022-09-20T02:20:01;101949.97;;;8.30;100.00
11856;BME280;5987;53.140;8.904;2022-09-20T02:23:29;101953.38;;;8.38;100.00
11856;BME280;5987;53.140;8.904;2022-09-20T02:26:48;101949.81;;;8.50;100.00
11856;BME280;5987;53.140;8.904;2022-09-20T02:30:14;101953.25;;;8.53;100.00
11856;BME280;5987;53.140;8.904;2022-09-20T02:33:57;101954.94;;;8.62;100.00
11856;BME280;5987;53.140;8.904;2022-09-20T02:37:34;101951.47;;;8.58;100.00
11856;BME280;5987;53.140;8.904;2022-09-20T02:41:07;101951.44;;;8.60;100.00
11856;BME280;5987;53.140;8.904;2022-09-20T02:44:26;101953.22;;;8.60;100.00
11856;BME280;5987;53.140;8.904;2022-09-20T02:47:36;101954.16;;;8.51;100.00
11856;BME280;5987;53.140;8.904;2022-09-20T02:50:51;101951.59;;;8.43;100.00
11856;BME280;5987;53.140;8.904;2022-09-20T02:54:14;101955.09;;;8.40;100.00
11856;BME280;5987;53.140;8.904;2022-09-20T02:57:27;101948.13;;;8.39;100.00
11856;BME280;5987;53.140;8.904;2022-09-20T03:00:43;101956.00;;;8.41;100.00
11856;BME280;5987;53.140;8.904;2022-09-20T03:04:01;101949.84;;;8.42;100.00
11856;BME280;5987;53.140;8.904;2022-09-20T03:07:22;101938.50;;;8.45;100.00
11856;BME280;5987;53.140;8.904;2022-09-20T03:10:39;101943.69;;;8.52;100.00
11856;BME280;5987;53.140;8.904;2022-09-20T03:14:10;101955.03;;;8.51;100.00
11856;BME280;5987;53.140;8.904;2022-09-20T03:17:29;101958.50;;;8.53;100.00
11856;BME280;5987;53.140;8.904;2022-09-20T03:20:50;101954.19;;;8.46;100.00
11856;BME280;5987;53.140;8.904;2022-09-20T03:24:11;101952.44;;;8.44;100.00
11856;BME280;5987;53.140;8.904;2022-09-20T03:27:31;101962.94;;;8.45;100.00
11856;BME280;5987;53.140;8.904;2022-09-20T03:30:57;101962.03;;;8.48;100.00
11856;BME280;5987;53.140;8.904;2022-09-20T03:34:19;101952.44;;;8.50;100.00
11856;BME280;5987;53.140;8.904;2022-09-20T03:37:48;101949.84;;;8.47;100.00
11856;BME280;5987;53.140;8.904;2022-09-20T03:41:40;101954.22;;;8.43;100.00
11856;BME280;5987;53.140;8.904;2022-09-20T03:45:37;101969.94;;;8.41;100.00
11856;BME280;5987;53.140;8.904;2022-09-20T03:49:47;101967.41;;;8.31;100.00
11856;BME280;5987;53.140;8.904;2022-09-20T04:00:37;101999.88;;;8.05;100.00
11856;BME280;5987;53.140;8.904;2022-09-20T04:03:59;101997.34;;;7.93;100.00
11856;BME280;5987;53.140;8.904;2022-09-20T04:07:16;102004.38;;;7.86;100.00
11856;BME280;5987;53.140;8.904;2022-09-20T04:10:40;102003.53;;;7.78;100.00
11856;BME280;5987;53.140;8.904;2022-09-20T04:13:59;102007.09;;;7.67;100.00
11856;BME280;5987;53.140;8.904;2022-09-20T04:17:34;102004.53;;;7.55;100.00
11856;BME280;5987;53.140;8.904;2022-09-20T04:20:49;102004.56;;;7.52;100.00
11856;BME280;5987;53.140;8.904;2022-09-20T04:24:03;102008.09;;;7.46;100.00
11856;BME280;5987;53.140;8.904;2022-09-20T04:27:16;102002.88;;;7.42;100.00
11856;BME280;5987;53.140;8.904;2022-09-20T04:30:24;102003.78;;;7.37;100.00
11856;BME280;5987;53.140;8.904;2022-09-20T04:33:40;102007.25;;;7.35;100.00
11856;BME280;5987;53.140;8.904;2022-09-20T04:37:01;102008.16;;;7.28;100.00
11856;BME280;5987;53.140;8.904;2022-09-20T04:40:22;102009.03;;;7.25;100.00
11856;BME280;5987;53.140;8.904;2022-09-20T04:44:11;102002.97;;;7.20;100.00
11856;BME280;5987;53.140;8.904;2022-09-20T04:48:22;102007.34;;;7.15;100.00
11856;BME280;5987;53.140;8.904;2022-09-20T04:55:49;102014.34;;;7.07;100.00
11856;BME280;5987;53.140;8.904;2022-09-20T04:59:05;102017.84;;;6.99;100.00
11856;BME280;5987;53.140;8.904;2022-09-20T05:02:53;102019.56;;;7.05;100.00
11856;BME280;5987;53.140;8.904;2022-09-20T05:06:43;102020.41;;;7.09;100.00
11856;BME280;5987;53.140;8.904;2022-09-20T05:18:16;102036.94;;;7.23;100.00
11856;BME280;5987;53.140;8.904;2022-09-20T05:21:49;102040.41;;;7.25;100.00
11856;BME280;5987;53.140;8.904;2022-09-20T05:25:28;102040.34;;;7.37;100.00
11856;BME280;5987;53.140;8.904;2022-09-20T05:28:49;102039.47;;;7.43;100.00
11856;BME280;5987;53.140;8.904;2022-09-20T05:32:07;102050.75;;;7.53;100.00
11856;BME280;5987;53.140;8.904;2022-09-20T05:35:21;102052.50;;;7.54;100.00
11856;BME280;5987;53.140;8.904;2022-09-20T05:38:42;102059.41;;;7.63;100.00
11856;BME280;5987;53.140;8.904;2022-09-20T05:41:57;102054.16;;;7.67;100.00
11856;BME280;5987;53.140;8.904;2022-09-20T05:45:21;102062.88;;;7.66;100.00
11856;BME280;5987;53.140;8.904;2022-09-20T05:48:42;102063.69;;;7.75;100.00
11856;BME280;5987;53.140;8.904;2022-09-20T05:52:16;102064.50;;;7.86;100.00
11856;BME280;5987;53.140;8.904;2022-09-20T05:55:59;102063.56;;;8.01;100.00
11856;BME280;5987;53.140;8.904;2022-09-20T05:59:29;102060.88;;;8.08;100.00
11856;BME280;5987;53.140;8.904;2022-09-20T06:02:49;102066.06;;;8.18;100.00
11856;BME280;5987;53.140;8.904;2022-09-20T06:06:05;102057.28;;;8.25;100.00
11856;BME280;5987;53.140;8.904;2022-09-20T06:09:40;102067.72;;;8.31;100.00
11856;BME280;5987;53.140;8.904;2022-09-20T06:12:59;102063.28;;;8.43;100.00
11856;BME280;5987;53.140;8.904;2022-09-20T06:16:12;102070.22;;;8.50;100.00
11856;BME280;5987;53.140;8.904;2022-09-20T06:19:32;102072.75;;;8.62;100.00
11856;BME280;5987;53.140;8.904;2022-09-20T06:22:43;102082.25;;;8.71;100.00
11856;BME280;5987;53.140;8.904;2022-09-20T06:25:53;102083.97;;;8.77;100.00
11856;BME280;5987;53.140;8.904;2022-09-20T06:29:05;102090.00;;;8.85;100.00
11856;BME280;5987;53.140;8.904;2022-09-20T06:32:16;102105.72;;;8.85;100.00
11856;BME280;5987;53.140;8.904;2022-09-20T06:35:22;102096.88;;;8.93;100.00
11856;BME280;5987;53.140;8.904;2022-09-20T06:38:42;102100.34;;;8.97;100.00
11856;BME280;5987;53.140;8.904;2022-09-20T06:42:06;102101.16;;;9.02;100.00
11856;BME280;5987;53.140;8.904;2022-09-20T06:45:34;102098.44;;;9.15;100.00
11856;BME280;5987;53.140;8.904;2022-09-20T06:48:39;102107.13;;;9.20;100.00
11856;BME280;5987;53.140;8.904;2022-09-20T06:51:43;102105.41;;;9.13;100.00
11856;BME280;5987;53.140;8.904;2022-09-20T06:54:52;102109.69;;;9.24;100.00
11856;BME280;5987;53.140;8.904;2022-09-20T06:57:57;102109.66;;;9.26;100.00
11856;BME280;5987;53.140;8.904;2022-09-20T07:01:02;102108.75;;;9.30;100.00
11856;BME280;5987;53.140;8.904;2022-09-20T07:04:06;102106.09;;;9.33;100.00
11856;BME280;5987;53.140;8.904;2022-09-20T07:07:15;102115.53;;;9.50;100.00
11856;BME280;5987;53.140;8.904;2022-09-20T07:10:20;102121.69;;;9.44;100.00
11856;BME280;5987;53.140;8.904;2022-09-20T07:13:23;102124.28;;;9.47;100.00
11856;BME280;5987;53.140;8.904;2022-09-20T07:16:29;102125.91;;;9.57;100.00
11856;BME280;5987;53.140;8.904;2022-09-20T07:19:32;102125.69;;;9.74;100.00
11856;BME280;5987;53.140;8.904;2022-09-20T07:22:37;102127.34;;;9.82;100.00
11856;BME280;5987;53.140;8.904;2022-09-20T07:25:41;102135.09;;;9.92;100.00
11856;BME280;5987;53.140;8.904;2022-09-20T07:28:46;102133.47;;;9.82;100.00
11856;BME280;5987;53.140;8.904;2022-09-20T07:31:52;102149.88;;;9.98;100.00
11856;BME280;5987;53.140;8.904;2022-09-20T07:34:55;102140.16;;;10.06;100.00
11856;BME280;5987;53.140;8.904;2022-09-20T07:37:59;102143.75;;;9.99;100.00
11856;BME280;5987;53.140;8.904;2022-09-20T07:41:04;102138.41;;;10.05;100.00
11856;BME280;5987;53.140;8.904;2022-09-20T07:44:08;102137.31;;;10.22;100.00
11856;BME280;5987;53.140;8.904;2022-09-20T07:47:27;102142.38;;;10.37;100.00
11856;BME280;5987;53.140;8.904;2022-09-20T07:50:34;102148.41;;;10.44;100.00
11856;BME280;5987;53.140;8.904;2022-09-20T07:53:39;102143.66;;;10.69;100.00
11856;BME280;5987;53.140;8.904;2022-09-20T07:56:43;102149.97;;;10.56;100.00
11856;BME280;5987;53.140;8.904;2022-09-20T07:59:47;102142.78;;;10.67;100.00
11856;BME280;5987;53.140;8.904;2022-09-20T08:02:58;102150.66;;;10.67;100.00
11856;BME280;5987;53.140;8.904;2022-09-20T08:06:05;102147.28;;;10.59;100.00
11856;BME280;5987;53.140;8.904;2022-09-20T08:09:10;102158.50;;;10.70;100.00
11856;BME280;5987;53.140;8.904;2022-09-20T08:12:14;102156.63;;;10.78;100.00
11856;BME280;5987;53.140;8.904;2022-09-20T08:16:01;102159.13;;;10.86;100.00
11856;BME280;5987;53.140;8.904;2022-09-20T08:19:07;102158.94;;;10.98;100.00
11856;BME280;5987;53.140;8.904;2022-09-20T08:22:13;102156.34;;;10.94;100.00
11856;BME280;5987;53.140;8.904;2022-09-20T08:25:17;102162.25;;;11.08;100.00
11856;BME280;5987;53.140;8.904;2022-09-20T08:28:21;102151.84;;;11.02;100.00
11856;BME280;5987;53.140;8.904;2022-09-20T08:31:27;102161.09;;;11.23;100.00
11856;BME280;5987;53.140;8.904;2022-09-20T08:34:34;102160.25;;;11.23;100.00
11856;BME280;5987;53.140;8.904;2022-09-20T08:37:37;102157.50;;;11.29;100.00
11856;BME280;5987;53.140;8.904;2022-09-20T08:40:41;102153.03;;;11.34;100.00
11856;BME280;5987;53.140;8.904;2022-09-20T08:43:51;102159.31;;;11.27;100.00
11856;BME280;5987;53.140;8.904;2022-09-20T08:47:05;102166.84;;;11.45;100.00
11856;BME280;5987;53.140;8.904;2022-09-20T08:50:13;102160.94;;;11.78;100.00
11856;BME280;5987;53.140;8.904;2022-09-20T08:53:19;102155.53;;;11.86;99.83
11856;BME280;5987;53.140;8.904;2022-09-20T08:56:28;102154.66;;;11.85;97.47
11856;BME280;5987;53.140;8.904;2022-09-20T08:59:33;102156.53;;;12.21;96.59
11856;BME280;5987;53.140;8.904;2022-09-20T09:02:37;102154.41;;;12.38;93.79
11856;BME280;5987;53.140;8.904;2022-09-20T09:05:46;102149.88;;;12.45;90.63
11856;BME280;5987;53.140;8.904;2022-09-20T09:08:59;102146.91;;;12.59;88.50
11856;BME280;5987;53.140;8.904;2022-09-20T09:12:03;102133.94;;;12.85;87.60
11856;BME280;5987;53.140;8.904;2022-09-20T09:15:26;102139.28;;;12.82;85.66
11856;BME280;5987;53.140;8.904;2022-09-20T09:18:35;102138.22;;;12.90;84.36
11856;BME280;5987;53.140;8.904;2022-09-20T09:21:42;102141.38;;;13.04;83.41
11856;BME280;5987;53.140;8.904;2022-09-20T09:25:23;102135.94;;;13.10;81.19
11856;BME280;5987;53.140;8.904;2022-09-20T09:28:28;102140.44;;;13.05;79.36
11856;BME280;5987;53.140;8.904;2022-09-20T09:31:38;102145.34;;;12.86;77.66
11856;BME280;5987;53.140;8.904;2022-09-20T09:34:41;102147.38;;;12.75;76.78
11856;BME280;5987;53.140;8.904;2022-09-20T09:37:54;102165.03;;;12.71;77.51
11856;BME280;5987;53.140;8.904;2022-09-20T09:41:01;102188.22;;;12.17;80.04
11856;BME280;5987;53.140;8.904;2022-09-20T09:44:15;102191.09;;;11.13;83.40
11856;BME280;5987;53.140;8.904;2022-09-20T09:47:25;102194.53;;;10.62;87.24
11856;BME280;5987;53.140;8.904;2022-09-20T09:50:32;102191.53;;;10.24;90.37
11856;BME280;5987;53.140;8.904;2022-09-20T09:53:39;102194.28;;;10.15;92.58
11856;BME280;5987;53.140;8.904;2022-09-20T09:57:09;102198.81;;;10.02;94.26
11856;BME280;5987;53.140;8.904;2022-09-20T10:00:20;102216.19;;;10.11;96.26
11856;BME280;5987;53.140;8.904;2022-09-20T10:03:49;102216.25;;;10.06;97.86
11856;BME280;5987;53.140;8.904;2022-09-20T10:07:06;102219.50;;;10.27;99.41
11856;BME280;5987;53.140;8.904;2022-09-20T10:10:26;102225.63;;;10.27;100.00
11856;BME280;5987;53.140;8.904;2022-09-20T10:13:41;102233.50;;;10.26;100.00
11856;BME280;5987;53.140;8.904;2022-09-20T10:17:08;102228.16;;;10.37;100.00
11856;BME280;5987;53.140;8.904;2022-09-20T10:20:41;102227.41;;;10.22;100.00
11856;BME280;5987;53.140;8.904;2022-09-20T10:24:04;102223.81;;;10.33;100.00
11856;BME280;5987;53.140;8.904;2022-09-20T10:27:25;102228.94;;;10.42;100.00
11856;BME280;5987;53.140;8.904;2022-09-20T10:30:55;102225.31;;;10.52;100.00
11856;BME280;5987;53.140;8.904;2022-09-20T10:34:38;102216.19;;;10.78;100.00
11856;BME280;5987;53.140;8.904;2022-09-20T10:38:05;102223.09;;;10.84;100.00
11856;BME280;5987;53.140;8.904;2022-09-20T10:45:16;102213.00;;;11.12;100.00
11856;BME280;5987;53.140;8.904;2022-09-20T10:48:46;102219.38;;;10.98;100.00
11856;BME280;5987;53.140;8.904;2022-09-20T10:52:15;102213.47;;;11.36;100.00
11856;BME280;5987;53.140;8.904;2022-09-20T10:55:35;102211.22;;;11.62;100.00
11856;BME280;5987;53.140;8.904;2022-09-20T10:59:18;102209.34;;;11.69;100.00
11856;BME280;5987;53.140;8.904;2022-09-20T11:02:44;102214.66;;;12.13;100.00
11856;BME280;5987;53.140;8.904;2022-09-20T11:06:09;102210.50;;;12.03;98.78
11856;BME280;5987;53.140;8.904;2022-09-20T11:09:21;102215.50;;;12.13;97.31
11856;BME280;5987;53.140;8.904;2022-09-20T11:12:33;102213.47;;;11.82;94.49
11856;BME280;5987;53.140;8.904;2022-09-20T11:15:47;102205.34;;;12.37;93.79
11856;BME280;5987;53.140;8.904;2022-09-20T11:19:00;102206.41;;;12.28;91.44
11856;BME280;5987;53.140;8.904;2022-09-20T11:22:11;102203.03;;;12.22;89.37
11856;BME280;5987;53.140;8.904;2022-09-20T11:25:20;102209.31;;;12.57;88.14
11856;BME280;5987;53.140;8.904;2022-09-20T11:28:35;102205.22;;;12.43;84.44
11856;BME280;5987;53.140;8.904;2022-09-20T11:31:45;102204.88;;;12.59;82.58
11856;BME280;5987;53.140;8.904;2022-09-20T11:34:58;102199.47;;;12.99;82.40
11856;BME280;5987;53.140;8.904;2022-09-20T11:38:16;102198.31;;;13.11;81.29
11856;BME280;5987;53.140;8.904;2022-09-20T11:41:27;102198.47;;;13.05;80.39
11856;BME280;5987;53.140;8.904;2022-09-20T11:44:34;102195.72;;;13.10;80.10
11856;BME280;5987;53.140;8.904;2022-09-20T11:47:45;102202.75;;;13.09;79.43
11856;BME280;5987;53.140;8.904;2022-09-20T11:51:44;102204.94;;;13.28;79.71
11856;BME280;5987;53.140;8.904;2022-09-20T11:55:19;102204.91;;;12.93;78.38
11856;BME280;5987;53.140;8.904;2022-09-20T11:58:27;102199.66;;;12.93;77.07
11856;BME280;5987;53.140;8.904;2022-09-20T12:01:36;102205.47;;;13.06;75.90
11856;BME280;5987;53.140;8.904;2022-09-20T12:04:45;102191.16;;;13.16;74.71
11856;BME280;5987;53.140;8.904;2022-09-20T12:07:59;102187.00;;;13.42;73.62
11856;BME280;5987;53.140;8.904;2022-09-20T12:11:08;102194.34;;;13.94;74.26
11856;BME280;5987;53.140;8.904;2022-09-20T12:14:19;102183.03;;;13.59;72.00
11856;BME280;5987;53.140;8.904;2022-09-20T12:21:25;102185.72;;;13.23;67.44
11856;BME280;5987;53.140;8.904;2022-09-20T12:24:33;102185.34;;;13.38;68.12
11856;BME280;5987;53.140;8.904;2022-09-20T12:27:56;102189.69;;;13.72;68.57
11856;BME280;5987;53.140;8.904;2022-09-20T12:31:38;102184.44;;;13.39;67.17
11856;BME280;5987;53.140;8.904;2022-09-20T12:34:43;102194.78;;;13.80;68.38
11856;BME280;5987;53.140;8.904;2022-09-20T12:37:46;102179.97;;;14.04;70.04
11856;BME280;5987;53.140;8.904;2022-09-20T12:41:13;102195.50;;;14.15;70.93
11856;BME280;5987;53.140;8.904;2022-09-20T12:44:29;102185.38;;;14.01;70.74
11856;BME280;5987;53.140;8.904;2022-09-20T12:47:36;102183.44;;;14.06;70.87
11856;BME280;5987;53.140;8.904;2022-09-20T12:50:40;102190.94;;;14.48;72.18
11856;BME280;5987;53.140;8.904;2022-09-20T12:54:05;102189.06;;;13.94;70.17
11856;BME280;5987;53.140;8.904;2022-09-20T12:57:28;102192.94;;;14.12;70.64
11856;BME280;5987;53.140;8.904;2022-09-20T13:00:37;102192.63;;;14.22;70.25
11856;BME280;5987;53.140;8.904;2022-09-20T13:03:43;102190.25;;;14.13;67.97
11856;BME280;5987;53.140;8.904;2022-09-20T13:07:32;102183.22;;;14.14;67.84
11856;BME280;5987;53.140;8.904;2022-09-20T13:10:49;102196.53;;;14.11;67.42
11856;BME280;5987;53.140;8.904;2022-09-20T13:14:02;102194.00;;;14.06;67.96
11856;BME280;5987;53.140;8.904;2022-09-20T13:17:26;102194.94;;;14.03;68.56
11856;BME280;5987;53.140;8.904;2022-09-20T13:20:34;102198.66;;;14.28;68.29
11856;BME280;5987;53.140;8.904;2022-09-20T13:23:48;102191.06;;;14.45;68.24
11856;BME280;5987;53.140;8.904;2022-09-20T13:27:00;102190.94;;;14.20;66.95
11856;BME280;5987;53.140;8.904;2022-09-20T13:30:13;102189.13;;;14.22;66.76
11856;BME280;5987;53.140;8.904;2022-09-20T13:33:22;102193.44;;;13.95;65.46
11856;BME280;5987;53.140;8.904;2022-09-20T13:36:28;102195.47;;;14.16;65.44
11856;BME280;5987;53.140;8.904;2022-09-20T13:39:35;102193.41;;;14.54;65.72
11856;BME280;5987;53.140;8.904;2022-09-20T13:42:39;102194.22;;;14.28;63.94
11856;BME280;5987;53.140;8.904;2022-09-20T13:45:43;102191.81;;;14.20;63.46
11856;BME280;5987;53.140;8.904;2022-09-20T13:48:57;102199.00;;;14.15;63.31
11856;BME280;5987;53.140;8.904;2022-09-20T13:52:22;102201.69;;;13.84;62.89
11856;BME280;5987;53.140;8.904;2022-09-20T13:55:31;102201.72;;;13.82;63.57
11856;BME280;5987;53.140;8.904;2022-09-20T13:58:35;102205.63;;;13.69;64.38
11856;BME280;5987;53.140;8.904;2022-09-20T14:01:48;102206.13;;;13.50;65.08
11856;BME280;5987;53.140;8.904;2022-09-20T14:04:55;102213.53;;;13.34;65.75
11856;BME280;5987;53.140;8.904;2022-09-20T14:08:01;102210.03;;;13.35;66.81
11856;BME280;5987;53.140;8.904;2022-09-20T14:11:15;102214.94;;;13.49;67.54
11856;BME280;5987;53.140;8.904;2022-09-20T14:14:20;102206.22;;;13.79;67.66
11856;BME280;5987;53.140;8.904;2022-09-20T14:17:30;102211.47;;;13.49;67.18
11856;BME280;5987;53.140;8.904;2022-09-20T14:20:35;102215.03;;;13.46;66.54
11856;BME280;5987;53.140;8.904;2022-09-20T14:23:51;102205.41;;;13.77;66.62
11856;BME280;5987;53.140;8.904;2022-09-20T14:27:16;102205.28;;;13.81;65.26
11856;BME280;5987;53.140;8.904;2022-09-20T14:30:30;102206.84;;;13.88;64.98
11856;BME280;5987;53.140;8.904;2022-09-20T14:33:42;102200.16;;;13.75;64.85
11856;BME280;5987;53.140;8.904;2022-09-20T14:36:49;102205.59;;;14.00;66.40
11856;BME280;5987;53.140;8.904;2022-09-20T14:39:55;102200.28;;;14.02;67.63
11856;BME280;5987;53.140;8.904;2022-09-20T14:43:04;102202.69;;;13.80;68.13
11856;BME280;5987;53.140;8.904;2022-09-20T14:46:15;102202.75;;;13.77;68.26
11856;BME280;5987;53.140;8.904;2022-09-20T14:49:31;102205.53;;;13.72;67.65
11856;BME280;5987;53.140;8.904;2022-09-20T14:52:38;102211.28;;;13.86;67.92
11856;BME280;5987;53.140;8.904;2022-09-20T14:56:05;102205.16;;;13.86;67.84
11856;BME280;5987;53.140;8.904;2022-09-20T14:59:25;102212.38;;;13.79;67.92
11856;BME280;5987;53.140;8.904;2022-09-20T15:02:29;102210.91;;;13.69;67.95
11856;BME280;5987;53.140;8.904;2022-09-20T15:05:33;102214.66;;;13.60;67.84
11856;BME280;5987;53.140;8.904;2022-09-20T15:08:37;102217.91;;;13.70;68.29
11856;BME280;5987;53.140;8.904;2022-09-20T15:11:58;102212.88;;;13.61;68.15
11856;BME280;5987;53.140;8.904;2022-09-20T15:15:04;102215.66;;;13.56;68.33
11856;BME280;5987;53.140;8.904;2022-09-20T15:18:18;102218.81;;;13.36;66.99
11856;BME280;5987;53.140;8.904;2022-09-20T15:21:22;102213.97;;;13.53;67.02
11856;BME280;5987;53.140;8.904;2022-09-20T15:24:26;102224.53;;;13.53;66.76
11856;BME280;5987;53.140;8.904;2022-09-20T15:27:30;102218.41;;;13.51;66.70
11856;BME280;5987;53.140;8.904;2022-09-20T15:30:35;102217.38;;;13.57;66.47
11856;BME280;5987;53.140;8.904;2022-09-20T15:33:39;102225.41;;;13.52;66.59
11856;BME280;5987;53.140;8.904;2022-09-20T15:36:45;102219.25;;;13.53;66.20
11856;BME280;5987;53.140;8.904;2022-09-20T15:39:49;102214.66;;;13.60;66.83
11856;BME280;5987;53.140;8.904;2022-09-20T15:42:54;102220.97;;;13.54;66.81
11856;BME280;5987;53.140;8.904;2022-09-20T15:46:16;102223.63;;;13.54;66.54
11856;BME280;5987;53.140;8.904;2022-09-20T15:49:21;102226.16;;;13.58;66.59
11856;BME280;5987;53.140;8.904;2022-09-20T15:52:25;102226.41;;;13.48;66.37
11856;BME280;5987;53.140;8.904;2022-09-20T15:55:30;102225.63;;;13.45;66.60
11856;BME280;5987;53.140;8.904;2022-09-20T15:58:34;102219.06;;;13.60;66.70
11856;BME280;5987;53.140;8.904;2022-09-20T16:01:41;102219.28;;;13.52;67.39
11856;BME280;5987;53.140;8.904;2022-09-20T16:04:45;102225.31;;;13.55;67.38
11856;BME280;5987;53.140;8.904;2022-09-20T16:07:49;102230.81;;;13.48;67.29
11856;BME280;5987;53.140;8.904;2022-09-20T16:10:56;102234.56;;;13.39;66.14
11856;BME280;5987;53.140;8.904;2022-09-20T16:14:00;102230.66;;;13.54;66.87
11856;BME280;5987;53.140;8.904;2022-09-20T16:17:06;102228.91;;;13.54;67.48
11856;BME280;5987;53.140;8.904;2022-09-20T16:20:10;102240.75;;;13.38;67.61
11856;BME280;5987;53.140;8.904;2022-09-20T16:23:13;102245.63;;;13.17;66.57
11856;BME280;5987;53.140;8.904;2022-09-20T16:26:17;102255.53;;;13.08;64.42
11856;BME280;5987;53.140;8.904;2022-09-20T16:29:22;102251.31;;;13.00;62.61
11856;BME280;5987;53.140;8.904;2022-09-20T16:32:28;102260.16;;;12.98;61.26
11856;BME280;5987;53.140;8.904;2022-09-20T16:35:32;102256.78;;;12.93;61.41
11856;BME280;5987;53.140;8.904;2022-09-20T16:38:36;102271.06;;;12.82;61.71
11856;BME280;5987;53.140;8.904;2022-09-20T16:41:46;102269.66;;;12.67;62.46
11856;BME280;5987;53.140;8.904;2022-09-20T16:44:50;102275.13;;;12.58;62.75
11856;BME280;5987;53.140;8.904;2022-09-20T16:47:55;102266.53;;;12.50;63.09
11856;BME280;5987;53.140;8.904;2022-09-20T16:51:00;102266.81;;;12.36;64.34
11856;BME280;5987;53.140;8.904;2022-09-20T16:54:08;102275.81;;;12.26;65.18
11856;BME280;5987;53.140;8.904;2022-09-20T16:57:13;102270.06;;;12.05;66.02
11856;BME280;5987;53.140;8.904;2022-09-20T17:00:17;102274.66;;;11.97;67.02
11856;BME280;5987;53.140;8.904;2022-09-20T17:03:24;102279.19;;;11.87;67.25
11856;BME280;5987;53.140;8.904;2022-09-20T17:06:28;102283.06;;;11.67;68.59
11856;BME280;5987;53.140;8.904;2022-09-20T17:09:32;102291.13;;;11.57;69.48
11856;BME280;5987;53.140;8.904;2022-09-20T17:12:36;102287.81;;;11.45;70.40
11856;BME280;5987;53.140;8.904;2022-09-20T17:15:43;102297.72;;;11.31;71.20
11856;BME280;5987;53.140;8.904;2022-09-20T17:18:51;102308.41;;;11.20;72.14
11856;BME280;5987;53.140;8.904;2022-09-20T17:21:55;102305.03;;;11.10;72.83
11856;BME280;5987;53.140;8.904;2022-09-20T17:24:59;102307.84;;;10.98;73.82
11856;BME280;5987;53.140;8.904;2022-09-20T17:28:03;102315.00;;;10.87;74.93
11856;BME280;5987;53.140;8.904;2022-09-20T17:31:10;102316.88;;;10.78;75.74
11856;BME280;5987;53.140;8.904;2022-09-20T17:34:16;102318.81;;;10.64;76.51
11856;BME280;5987;53.140;8.904;2022-09-20T17:37:23;102319.81;;;10.55;77.37
11856;BME280;5987;53.140;8.904;2022-09-20T17:40:26;102322.56;;;10.44;78.24